createdAt,value
2023-03-05T00:00:32.928Z,0.03
2023-03-05T00:01:32.905Z,0.02
2023-03-05T00:02:32.956Z,0.08
2023-03-05T00:03:32.928Z,0.04
2023-03-05T00:04:32.920Z,0.10
2023-03-05T00:05:32.911Z,0.02
2023-03-05T00:06:32.955Z,-0.03
2023-03-05T00:07:32.933Z,0.02
2023-03-05T00:08:32.949Z,-0.04
2023-03-05T00:09:34.930Z,-0.05
2023-03-05T00:10:32.958Z,0.00
2023-03-05T00:11:32.943Z,-0.05
2023-03-05T00:12:32.951Z,-0.07
2023-03-05T00:13:32.941Z,-0.05
2023-03-05T00:14:32.953Z,0.00
2023-03-05T00:15:32.962Z,0.02
2023-03-05T00:16:32.986Z,-0.05
2023-03-05T00:17:32.965Z,-0.05
2023-03-05T00:18:32.970Z,-0.04
2023-03-05T00:19:32.969Z,-0.05
2023-03-05T00:20:32.974Z,0.00
2023-03-05T00:21:32.999Z,0.00
2023-03-05T00:22:32.983Z,-0.04
2023-03-05T00:23:32.987Z,-0.05
2023-03-05T00:24:32.997Z,-0.04
2023-03-05T00:25:32.996Z,-0.05
2023-03-05T00:26:33.000Z,-0.04
2023-03-05T00:27:33.003Z,-0.07
2023-03-05T00:28:33.010Z,-0.08
2023-03-05T00:29:33.015Z,-0.10
2023-03-05T00:30:33.019Z,-0.10
2023-03-05T00:31:33.102Z,-0.18
2023-03-05T00:32:33.076Z,-0.23
2023-03-05T00:33:33.033Z,-0.19
2023-03-05T00:34:33.037Z,-0.16
2023-03-05T00:35:35.116Z,-0.16
2023-03-05T00:36:33.085Z,-0.19
2023-03-05T00:37:33.051Z,-0.22
2023-03-05T00:38:33.058Z,-0.21
2023-03-05T00:39:33.060Z,-0.25
2023-03-05T00:40:33.136Z,-0.26
2023-03-05T00:41:33.069Z,-0.22
2023-03-05T00:42:33.076Z,-0.23
2023-03-05T00:43:33.077Z,-0.29
2023-03-05T00:44:33.088Z,-0.29
2023-03-05T00:45:33.087Z,-0.31
2023-03-05T00:46:33.178Z,-0.37
2023-03-05T00:47:33.102Z,-0.25
2023-03-05T00:48:33.123Z,-0.26
2023-03-05T00:49:33.104Z,-0.23
2023-03-05T00:50:33.128Z,-0.21
2023-03-05T00:51:33.112Z,-0.21
2023-03-05T00:52:33.118Z,-0.25
2023-03-05T00:53:33.119Z,-0.23
2023-03-05T00:54:33.127Z,-0.25
2023-03-05T00:55:33.128Z,-0.19
2023-03-05T00:56:33.136Z,-0.28
2023-03-05T00:57:33.140Z,-0.29
2023-03-05T00:58:33.149Z,-0.26
2023-03-05T00:59:33.151Z,-0.26
2023-03-05T01:00:33.158Z,-0.23
2023-03-05T01:01:33.222Z,-0.29
2023-03-05T01:02:34.760Z,-0.28
2023-03-05T01:03:33.156Z,-0.39
2023-03-05T01:04:33.183Z,-0.29
2023-03-05T01:05:33.260Z,-0.25
2023-03-05T01:06:33.169Z,-0.29
2023-03-05T01:07:33.174Z,-0.31
2023-03-05T01:08:33.176Z,-0.44
2023-03-05T01:09:33.174Z,-0.29
2023-03-05T01:10:33.179Z,-0.36
2023-03-05T01:11:33.178Z,-0.42
2023-03-05T01:12:33.186Z,-0.52
2023-03-05T01:13:33.184Z,-0.65
2023-03-05T01:14:33.192Z,-0.70
2023-03-05T01:15:33.204Z,-0.80
2023-03-05T01:16:33.367Z,-0.83
2023-03-05T01:17:33.200Z,-0.86
2023-03-05T01:18:33.206Z,-0.83
2023-03-05T01:19:33.206Z,-0.91
2023-03-05T01:20:33.233Z,-0.89
2023-03-05T01:21:33.213Z,-0.91
2023-03-05T01:22:33.227Z,-0.91
2023-03-05T01:23:33.229Z,-0.80
2023-03-05T01:24:33.247Z,-0.76
2023-03-05T01:25:33.226Z,-0.70
2023-03-05T01:26:33.248Z,-0.79
2023-03-05T01:27:33.234Z,-0.76
2023-03-05T01:28:33.246Z,-0.73
2023-03-05T01:29:33.249Z,-0.73
2023-03-05T01:30:33.249Z,-0.67
2023-03-05T01:31:33.396Z,-0.78
2023-03-05T01:32:34.753Z,-0.92
2023-03-05T01:33:33.256Z,-0.85
2023-03-05T01:34:33.269Z,-0.89
2023-03-05T01:35:33.306Z,-0.97
2023-03-05T01:36:33.281Z,-0.89
2023-03-05T01:37:33.273Z,-0.91
2023-03-05T01:38:33.270Z,-0.85
2023-03-05T01:39:33.284Z,-0.85
2023-03-05T01:40:33.283Z,-0.78
2023-03-05T01:41:33.292Z,-0.83
2023-03-05T01:42:33.288Z,-0.85
2023-03-05T01:43:33.306Z,-0.83
2023-03-05T01:44:33.300Z,-0.80
2023-03-05T01:45:33.425Z,-0.86
2023-03-05T01:46:33.305Z,-0.92
2023-03-05T01:47:33.314Z,-0.82
2023-03-05T01:48:33.309Z,-0.82
2023-03-05T01:49:33.318Z,-0.78
2023-03-05T01:50:33.322Z,-0.82
2023-03-05T01:51:33.323Z,-0.82
2023-03-05T01:52:33.355Z,-0.82
2023-03-05T01:53:33.349Z,-0.82
2023-03-05T01:54:33.331Z,-0.80
2023-03-05T01:55:33.341Z,-0.85
2023-03-05T01:56:33.338Z,-0.85
2023-03-05T01:57:33.348Z,-0.85
2023-03-05T01:58:33.353Z,-0.89
2023-03-05T01:59:33.356Z,-0.92
2023-03-05T02:00:33.381Z,-0.89
2023-03-05T02:01:33.441Z,-1.01
2023-03-05T02:02:33.361Z,-0.99
2023-03-05T02:03:33.435Z,-0.92
2023-03-05T02:04:33.364Z,-0.98
2023-03-05T02:05:33.384Z,-0.86
2023-03-05T02:06:33.375Z,-0.95
2023-03-05T02:07:33.386Z,-0.85
2023-03-05T02:08:33.406Z,-0.95
2023-03-05T02:09:33.389Z,-0.95
2023-03-05T02:10:33.389Z,-0.99
2023-03-05T02:11:33.409Z,-0.91
2023-03-05T02:12:33.419Z,-0.94
2023-03-05T02:13:33.408Z,-0.97
2023-03-05T02:14:33.406Z,-0.92
2023-03-05T02:15:33.417Z,-1.02
2023-03-05T02:16:33.454Z,-1.04
2023-03-05T02:17:33.422Z,-1.05
2023-03-05T02:18:33.424Z,-1.10
2023-03-05T02:19:33.432Z,-1.22
2023-03-05T02:20:33.427Z,-1.17
2023-03-05T02:21:33.434Z,-1.16
2023-03-05T02:22:33.440Z,-1.19
2023-03-05T02:23:33.443Z,-1.19
2023-03-05T02:24:33.481Z,-1.22
2023-03-05T02:25:33.447Z,-1.22
2023-03-05T02:26:33.455Z,-1.22
2023-03-05T02:27:33.460Z,-1.25
2023-03-05T02:28:33.454Z,-1.30
2023-03-05T02:29:33.463Z,-1.33
2023-03-05T02:30:33.472Z,-1.40
2023-03-05T02:31:33.529Z,-1.38
2023-03-05T02:32:33.514Z,-1.40
2023-03-05T02:33:33.475Z,-1.33
2023-03-05T02:34:33.477Z,-1.38
2023-03-05T02:35:33.594Z,-1.33
2023-03-05T02:36:33.482Z,-1.40
2023-03-05T02:37:33.488Z,-1.31
2023-03-05T02:38:33.492Z,-1.30
2023-03-05T02:39:33.506Z,-1.38
2023-03-05T02:40:33.518Z,-1.45
2023-03-05T02:41:33.506Z,-1.46
2023-03-05T02:42:33.515Z,-1.48
2023-03-05T02:43:33.508Z,-1.55
2023-03-05T02:44:33.522Z,-1.45
2023-03-05T02:45:33.543Z,-1.38
2023-03-05T02:46:33.515Z,-1.35
2023-03-05T02:47:33.526Z,-1.43
2023-03-05T02:48:33.531Z,-1.45
2023-03-05T02:49:33.543Z,-1.40
2023-03-05T02:50:33.531Z,-1.51
2023-03-05T02:51:33.536Z,-1.52
2023-03-05T02:52:33.534Z,-1.49
2023-03-05T02:53:33.543Z,-1.54
2023-03-05T02:54:33.547Z,-1.49
2023-03-05T02:55:33.547Z,-1.52
2023-03-05T02:56:33.566Z,-1.56
2023-03-05T02:57:33.559Z,-1.56
2023-03-05T02:58:33.553Z,-1.59
2023-03-05T02:59:33.621Z,-1.61
2023-03-05T03:00:33.568Z,-1.61
2023-03-05T03:01:33.642Z,-1.66
2023-03-05T03:02:33.566Z,-1.66
2023-03-05T03:03:33.642Z,-1.66
2023-03-05T03:04:33.572Z,-1.66
2023-03-05T03:05:33.580Z,-1.72
2023-03-05T03:06:33.585Z,-1.70
2023-03-05T03:07:33.590Z,-1.70
2023-03-05T03:08:33.590Z,-1.72
2023-03-05T03:09:33.589Z,-1.69
2023-03-05T03:10:33.591Z,-1.70
2023-03-05T03:11:33.594Z,-1.70
2023-03-05T03:12:33.614Z,-1.69
2023-03-05T03:13:33.603Z,-1.69
2023-03-05T03:14:33.604Z,-1.74
2023-03-05T03:15:33.612Z,-1.73
2023-03-05T03:16:33.662Z,-1.72
2023-03-05T03:17:33.614Z,-1.70
2023-03-05T03:18:33.617Z,-1.66
2023-03-05T03:19:33.626Z,-1.69
2023-03-05T03:20:33.620Z,-1.72
2023-03-05T03:21:33.626Z,-1.67
2023-03-05T03:22:33.635Z,-1.67
2023-03-05T03:23:33.644Z,-1.62
2023-03-05T03:24:33.642Z,-1.62
2023-03-05T03:25:33.640Z,-1.64
2023-03-05T03:26:33.638Z,-1.61
2023-03-05T03:27:33.663Z,-1.54
2023-03-05T03:28:33.666Z,-1.58
2023-03-05T03:29:33.654Z,-1.49
2023-03-05T03:30:33.649Z,-1.56
2023-03-05T03:31:33.662Z,-1.45
2023-03-05T03:32:33.700Z,-1.46
2023-03-05T03:33:33.682Z,-1.41
2023-03-05T03:34:33.665Z,-1.37
2023-03-05T03:35:33.747Z,-1.38
2023-03-05T03:36:33.674Z,-1.43
2023-03-05T03:37:33.682Z,-1.37
2023-03-05T03:38:33.679Z,-1.40
2023-03-05T03:39:33.686Z,-1.38
2023-03-05T03:40:33.684Z,-1.34
2023-03-05T03:41:33.690Z,-1.43
2023-03-05T03:42:33.690Z,-1.41
2023-03-05T03:43:33.708Z,-1.40
2023-03-05T03:44:33.744Z,-1.37
2023-03-05T03:45:33.710Z,-1.37
2023-03-05T03:46:33.752Z,-1.35
2023-03-05T03:47:33.708Z,-1.38
2023-03-05T03:48:33.716Z,-1.40
2023-03-05T03:49:33.714Z,-1.43
2023-03-05T03:50:33.730Z,-1.41
2023-03-05T03:51:33.720Z,-1.49
2023-03-05T03:52:33.738Z,-1.52
2023-03-05T03:53:33.730Z,-1.54
2023-03-05T03:54:33.728Z,-1.52
2023-03-05T03:55:33.735Z,-1.54
2023-03-05T03:56:33.745Z,-1.58
2023-03-05T03:57:33.759Z,-1.61
2023-03-05T03:58:33.738Z,-1.70
2023-03-05T03:59:33.747Z,-1.70
2023-03-05T04:00:33.771Z,-1.73
2023-03-05T04:01:33.764Z,-1.77
2023-03-05T04:02:33.754Z,-1.82
2023-03-05T04:03:33.762Z,-1.74
2023-03-05T04:04:33.789Z,-1.76
2023-03-05T04:05:33.770Z,-1.73
2023-03-05T04:06:34.274Z,-1.67
2023-03-05T04:07:33.783Z,-1.69
2023-03-05T04:08:33.770Z,-1.72
2023-03-05T04:09:33.780Z,-1.66
2023-03-05T04:10:33.803Z,-1.73
2023-03-05T04:11:33.785Z,-1.62
2023-03-05T04:12:33.789Z,-1.74
2023-03-05T04:13:33.788Z,-1.79
2023-03-05T04:14:33.790Z,-1.73
2023-03-05T04:15:33.801Z,-1.72
2023-03-05T04:16:33.817Z,-1.67
2023-03-05T04:17:33.810Z,-1.69
2023-03-05T04:18:33.808Z,-1.70
2023-03-05T04:19:33.808Z,-1.69
2023-03-05T04:20:33.810Z,-1.70
2023-03-05T04:21:33.818Z,-1.84
2023-03-05T04:22:33.812Z,-1.84
2023-03-05T04:23:33.821Z,-1.82
2023-03-05T04:24:33.822Z,-1.77
2023-03-05T04:25:33.827Z,-1.80
2023-03-05T04:26:33.834Z,-1.76
2023-03-05T04:27:33.831Z,-1.76
2023-03-05T04:28:33.835Z,-1.85
2023-03-05T04:29:33.850Z,-1.84
2023-03-05T04:30:33.844Z,-1.76
2023-03-05T04:31:33.866Z,-1.61
2023-03-05T04:32:33.945Z,-1.56
2023-03-05T04:33:33.873Z,-1.58
2023-03-05T04:34:33.850Z,-1.55
2023-03-05T04:35:33.864Z,-1.58
2023-03-05T04:36:33.852Z,-1.55
2023-03-05T04:37:33.855Z,-1.67
2023-03-05T04:38:33.853Z,-1.66
2023-03-05T04:39:33.870Z,-1.64
2023-03-05T04:40:33.863Z,-1.67
2023-03-05T04:41:33.870Z,-1.59
2023-03-05T04:42:33.890Z,-1.66
2023-03-05T04:43:33.907Z,-1.72
2023-03-05T04:44:33.871Z,-1.72
2023-03-05T04:45:33.873Z,-1.79
2023-03-05T04:46:33.950Z,-1.73
2023-03-05T04:47:33.883Z,-1.84
2023-03-05T04:48:33.899Z,-1.80
2023-03-05T04:49:33.888Z,-1.87
2023-03-05T04:50:33.889Z,-1.74
2023-03-05T04:51:33.897Z,-1.84
2023-03-05T04:52:33.895Z,-1.85
2023-03-05T04:53:33.937Z,-1.70
2023-03-05T04:54:33.897Z,-1.72
2023-03-05T04:55:33.906Z,-1.70
2023-03-05T04:56:33.904Z,-1.70
2023-03-05T04:57:33.925Z,-1.62
2023-03-05T04:58:33.930Z,-1.72
2023-03-05T04:59:33.917Z,-1.70
2023-03-05T05:00:33.911Z,-1.82
2023-03-05T05:01:33.943Z,-1.72
2023-03-05T05:02:33.987Z,-1.76
2023-03-05T05:03:33.932Z,-1.80
2023-03-05T05:04:33.946Z,-1.84
2023-03-05T05:05:33.936Z,-1.82
2023-03-05T05:06:33.937Z,-1.77
2023-03-05T05:07:33.949Z,-1.80
2023-03-05T05:08:33.941Z,-1.74
2023-03-05T05:09:33.945Z,-1.74
2023-03-05T05:10:33.955Z,-1.74
2023-03-05T05:11:33.956Z,-1.82
2023-03-05T05:12:33.956Z,-1.79
2023-03-05T05:13:33.963Z,-1.91
2023-03-05T05:14:33.958Z,-1.91
2023-03-05T05:15:33.971Z,-1.82
2023-03-05T05:16:34.046Z,-1.85
2023-03-05T05:17:33.969Z,-1.95
2023-03-05T05:18:33.981Z,-1.97
2023-03-05T05:19:34.093Z,-1.90
2023-03-05T05:20:33.995Z,-2.02
2023-03-05T05:21:33.979Z,-2.06
2023-03-05T05:22:33.981Z,-2.06
2023-03-05T05:23:33.985Z,-1.97
2023-03-05T05:24:33.988Z,-2.06
2023-03-05T05:25:34.007Z,-2.02
2023-03-05T05:26:34.005Z,-2.02
2023-03-05T05:27:34.001Z,-2.09
2023-03-05T05:28:34.014Z,-2.05
2023-03-05T05:29:34.001Z,-2.02
2023-03-05T05:30:33.999Z,-2.09
2023-03-05T05:31:34.037Z,-2.02
2023-03-05T05:32:34.096Z,-1.97
2023-03-05T05:33:34.010Z,-2.00
2023-03-05T05:34:34.011Z,-1.94
2023-03-05T05:35:34.079Z,-1.94
2023-03-05T05:36:34.038Z,-1.90
2023-03-05T05:37:34.026Z,-1.85
2023-03-05T05:38:34.026Z,-1.91
2023-03-05T05:39:34.035Z,-1.88
2023-03-05T05:40:34.034Z,-1.77
2023-03-05T05:41:34.050Z,-1.82
2023-03-05T05:42:34.043Z,-1.85
2023-03-05T05:43:34.059Z,-1.84
2023-03-05T05:44:34.053Z,-1.90
2023-03-05T05:45:34.207Z,-1.92
2023-03-05T05:46:34.123Z,-1.97
2023-03-05T05:47:34.059Z,-1.97
2023-03-05T05:48:34.059Z,-2.03
2023-03-05T05:49:34.060Z,-1.97
2023-03-05T05:50:34.080Z,-2.06
2023-03-05T05:51:34.064Z,-2.06
2023-03-05T05:52:34.093Z,-2.05
2023-03-05T05:53:34.072Z,-2.09
2023-03-05T05:54:34.078Z,-2.12
2023-03-05T05:55:34.079Z,-2.03
2023-03-05T05:56:34.086Z,-2.03
2023-03-05T05:57:34.081Z,-2.03
2023-03-05T05:58:34.098Z,-2.02
2023-03-05T05:59:34.085Z,-1.95
2023-03-05T06:00:34.095Z,-2.05
2023-03-05T06:01:34.102Z,-2.13
2023-03-05T06:02:34.100Z,-2.02
2023-03-05T06:03:34.096Z,-2.06
2023-03-05T06:04:34.103Z,-2.05
2023-03-05T06:05:34.104Z,-2.12
2023-03-05T06:06:34.110Z,-2.09
2023-03-05T06:07:34.108Z,-2.03
2023-03-05T06:08:34.134Z,-2.02
2023-03-05T06:09:34.114Z,-2.02
2023-03-05T06:10:34.118Z,-2.00
2023-03-05T06:11:34.144Z,-2.08
2023-03-05T06:12:34.124Z,-2.10
2023-03-05T06:13:34.125Z,-2.02
2023-03-05T06:14:34.139Z,-1.92
2023-03-05T06:15:34.128Z,-1.98
2023-03-05T06:16:34.152Z,-1.90
2023-03-05T06:17:34.131Z,-1.92
2023-03-05T06:18:34.140Z,-1.95
2023-03-05T06:19:34.142Z,-1.97
2023-03-05T06:20:34.147Z,-2.03
2023-03-05T06:21:34.156Z,-2.03
2023-03-05T06:22:34.181Z,-2.05
2023-03-05T06:23:34.153Z,-2.06
2023-03-05T06:24:34.175Z,-2.03
2023-03-05T06:25:34.158Z,-2.00
2023-03-05T06:26:34.161Z,-2.03
2023-03-05T06:27:34.161Z,-1.94
2023-03-05T06:28:34.175Z,-1.98
2023-03-05T06:29:34.166Z,-1.95
2023-03-05T06:30:34.221Z,-1.92
2023-03-05T06:31:36.826Z,-1.94
2023-03-05T06:32:34.201Z,-1.97
2023-03-05T06:33:34.188Z,-2.00
2023-03-05T06:34:34.183Z,-2.02
2023-03-05T06:35:34.218Z,-2.08
2023-03-05T06:36:34.186Z,-2.03
2023-03-05T06:37:34.186Z,-2.09
2023-03-05T06:38:34.194Z,-2.02
2023-03-05T06:39:34.195Z,-2.09
2023-03-05T06:40:34.220Z,-2.09
2023-03-05T06:41:34.196Z,-2.15
2023-03-05T06:42:34.205Z,-2.15
2023-03-05T06:43:34.203Z,-2.09
2023-03-05T06:44:34.208Z,-2.06
2023-03-05T06:45:34.222Z,-2.06
2023-03-05T06:46:34.393Z,-2.03
2023-03-05T06:47:34.213Z,-2.05
2023-03-05T06:48:34.217Z,-2.08
2023-03-05T06:49:34.219Z,-2.00
2023-03-05T06:50:34.224Z,-2.03
2023-03-05T06:51:34.222Z,-2.12
2023-03-05T06:52:34.228Z,-2.09
2023-03-05T06:53:34.230Z,-2.02
2023-03-05T06:54:34.235Z,-2.05
2023-03-05T06:55:34.232Z,-2.03
2023-03-05T06:56:34.261Z,-2.03
2023-03-05T06:57:34.240Z,-2.08
2023-03-05T06:58:34.251Z,-2.09
2023-03-05T06:59:34.248Z,-2.03
2023-03-05T07:00:34.248Z,-2.05
2023-03-05T07:01:34.299Z,-1.98
2023-03-05T07:02:34.293Z,-2.08
2023-03-05T07:03:34.256Z,-2.03
2023-03-05T07:04:34.283Z,-1.94
2023-03-05T07:05:34.342Z,-1.92
2023-03-05T07:06:34.264Z,-1.92
2023-03-05T07:07:34.271Z,-1.91
2023-03-05T07:08:34.269Z,-1.90
2023-03-05T07:09:34.268Z,-1.87
2023-03-05T07:10:34.274Z,-1.87
2023-03-05T07:11:34.295Z,-1.82
2023-03-05T07:12:34.303Z,-1.80
2023-03-05T07:13:34.277Z,-1.85
2023-03-05T07:14:34.285Z,-1.82
2023-03-05T07:15:34.309Z,-1.77
2023-03-05T07:16:34.288Z,-1.84
2023-03-05T07:17:34.293Z,-1.79
2023-03-05T07:18:34.306Z,-1.74
2023-03-05T07:19:34.296Z,-1.80
2023-03-05T07:20:34.306Z,-1.80
2023-03-05T07:21:34.319Z,-1.73
2023-03-05T07:22:34.322Z,-1.84
2023-03-05T07:23:34.328Z,-1.73
2023-03-05T07:24:34.311Z,-1.76
2023-03-05T07:25:34.321Z,-1.73
2023-03-05T07:26:34.324Z,-1.72
2023-03-05T07:27:34.323Z,-1.74
2023-03-05T07:28:34.340Z,-1.73
2023-03-05T07:29:34.321Z,-1.66
2023-03-05T07:30:34.373Z,-1.69
2023-03-05T07:31:34.333Z,-1.64
2023-03-05T07:32:34.383Z,-1.59
2023-03-05T07:33:34.333Z,-1.62
2023-03-05T07:34:34.341Z,-1.67
2023-03-05T07:35:34.370Z,-1.59
2023-03-05T07:36:34.346Z,-1.56
2023-03-05T07:37:34.352Z,-1.51
2023-03-05T07:38:34.368Z,-1.55
2023-03-05T07:39:34.372Z,-1.56
2023-03-05T07:40:34.355Z,-1.40
2023-03-05T07:41:34.371Z,-1.40
2023-03-05T07:42:34.426Z,-1.34
2023-03-05T07:43:34.365Z,-1.33
2023-03-05T07:44:34.394Z,-1.31
2023-03-05T07:45:34.369Z,-1.25
2023-03-05T07:46:34.482Z,-1.13
2023-03-05T07:47:34.381Z,-1.01
2023-03-05T07:48:34.399Z,-0.85
2023-03-05T07:49:34.380Z,-0.75
2023-03-05T07:50:34.384Z,-0.51
2023-03-05T07:51:34.387Z,-0.49
2023-03-05T07:52:34.392Z,-0.33
2023-03-05T07:53:34.403Z,-0.33
2023-03-05T07:54:34.407Z,-0.34
2023-03-05T07:55:34.400Z,-0.36
2023-03-05T07:56:34.403Z,-0.21
2023-03-05T07:57:34.405Z,-0.05
2023-03-05T07:58:34.414Z,-0.04
2023-03-05T07:59:34.410Z,-0.07
2023-03-05T08:00:34.437Z,0.02
2023-03-05T08:01:34.417Z,0.14
2023-03-05T08:02:34.501Z,0.11
2023-03-05T08:03:34.427Z,0.17
2023-03-05T08:04:34.434Z,-0.01
2023-03-05T08:05:34.432Z,0.23
2023-03-05T08:06:34.445Z,0.26
2023-03-05T08:07:34.441Z,0.29
2023-03-05T08:08:34.448Z,0.33
2023-03-05T08:09:34.440Z,0.32
2023-03-05T08:10:34.455Z,0.35
2023-03-05T08:11:34.448Z,0.28
2023-03-05T08:12:34.454Z,0.07
2023-03-05T08:13:34.458Z,0.03
2023-03-05T08:14:34.460Z,0.02
2023-03-05T08:15:34.552Z,0.33
2023-03-05T08:16:34.486Z,0.44
2023-03-05T08:17:34.513Z,0.38
2023-03-05T08:18:34.476Z,0.38
2023-03-05T08:19:34.509Z,0.15
2023-03-05T08:20:34.478Z,-0.04
2023-03-05T08:21:34.484Z,0.14
2023-03-05T08:22:34.486Z,0.03
2023-03-05T08:23:34.483Z,0.04
2023-03-05T08:24:34.494Z,0.17
2023-03-05T08:25:34.498Z,0.36
2023-03-05T08:26:34.498Z,0.31
2023-03-05T08:27:34.496Z,0.42
2023-03-05T08:28:34.548Z,0.35
2023-03-05T08:29:34.507Z,0.38
2023-03-05T08:30:34.511Z,0.51
2023-03-05T08:31:34.611Z,0.36
2023-03-05T08:32:34.590Z,0.57
2023-03-05T08:33:35.447Z,0.39
2023-03-05T08:34:34.529Z,0.51
2023-03-05T08:35:34.568Z,0.35
2023-03-05T08:36:34.527Z,0.53
2023-03-05T08:37:34.530Z,0.70
2023-03-05T08:38:34.540Z,0.61
2023-03-05T08:39:34.538Z,0.60
2023-03-05T08:40:34.547Z,0.57
2023-03-05T08:41:34.542Z,0.18
2023-03-05T08:42:34.575Z,0.17
2023-03-05T08:43:34.552Z,0.57
2023-03-05T08:44:34.554Z,0.53
2023-03-05T08:45:34.566Z,0.66
2023-03-05T08:46:34.578Z,0.61
2023-03-05T08:47:34.564Z,0.66
2023-03-05T08:48:34.596Z,0.78
2023-03-05T08:49:34.568Z,1.16
2023-03-05T08:50:34.573Z,1.18
2023-03-05T08:51:34.575Z,1.27
2023-03-05T08:52:34.581Z,1.33
2023-03-05T08:53:34.582Z,1.59
2023-03-05T08:54:34.590Z,1.90
2023-03-05T08:55:34.592Z,2.14
2023-03-05T08:56:34.601Z,2.24
2023-03-05T08:57:34.599Z,2.28
2023-03-05T08:58:34.610Z,2.14
2023-03-05T08:59:34.603Z,2.34
2023-03-05T09:00:34.609Z,2.45
2023-03-05T09:01:34.659Z,2.14
2023-03-05T09:02:34.640Z,1.80
2023-03-05T09:03:34.621Z,1.86
2023-03-05T09:04:34.646Z,1.68
2023-03-05T09:05:34.625Z,1.79
2023-03-05T09:06:34.640Z,2.05
2023-03-05T09:07:34.634Z,1.66
2023-03-05T09:08:34.652Z,1.54
2023-03-05T09:09:34.646Z,1.62
2023-03-05T09:10:34.652Z,2.03
2023-03-05T09:11:34.661Z,2.18
2023-03-05T09:12:34.666Z,2.48
2023-03-05T09:13:34.663Z,2.78
2023-03-05T09:14:34.663Z,3.02
2023-03-05T09:15:34.680Z,3.00
2023-03-05T09:16:34.706Z,3.02
2023-03-05T09:17:34.673Z,3.08
2023-03-05T09:18:34.679Z,3.08
2023-03-05T09:19:34.697Z,2.74
2023-03-05T09:20:34.711Z,3.00
2023-03-05T09:21:34.690Z,3.14
2023-03-05T09:22:34.697Z,2.99
2023-03-05T09:23:34.705Z,2.99
2023-03-05T09:24:34.706Z,3.06
2023-03-05T09:25:34.704Z,3.06
2023-03-05T09:26:34.714Z,3.54
2023-03-05T09:27:34.715Z,3.40
2023-03-05T09:28:34.730Z,2.84
2023-03-05T09:29:34.724Z,2.79
2023-03-05T09:30:34.736Z,2.52
2023-03-05T09:31:34.840Z,2.42
2023-03-05T09:32:34.829Z,2.74
2023-03-05T09:33:34.745Z,2.61
2023-03-05T09:34:34.757Z,2.87
2023-03-05T09:35:34.768Z,3.10
2023-03-05T09:36:34.789Z,3.52
2023-03-05T09:37:34.762Z,3.26
2023-03-05T09:38:34.768Z,2.96
2023-03-05T09:39:34.779Z,2.97
2023-03-05T09:40:34.779Z,3.20
2023-03-05T09:41:34.779Z,3.29
2023-03-05T09:42:34.788Z,3.78
2023-03-05T09:43:34.804Z,3.88
2023-03-05T09:44:34.802Z,4.30
2023-03-05T09:45:34.835Z,4.08
2023-03-05T09:46:34.807Z,4.34
2023-03-05T09:47:34.831Z,4.26
2023-03-05T09:48:34.819Z,4.37
2023-03-05T09:49:34.818Z,4.34
2023-03-05T09:50:34.836Z,4.44
2023-03-05T09:51:34.844Z,4.36
2023-03-05T09:52:34.859Z,4.06
2023-03-05T09:53:34.849Z,4.66
2023-03-05T09:54:34.853Z,4.60
2023-03-05T09:55:34.854Z,4.26
2023-03-05T09:56:34.859Z,4.42
2023-03-05T09:57:34.882Z,4.36
2023-03-05T09:58:34.873Z,4.26
2023-03-05T09:59:34.879Z,4.36
2023-03-05T10:00:34.885Z,4.33
2023-03-05T10:01:34.888Z,4.41
2023-03-05T10:02:34.901Z,4.33
2023-03-05T10:03:34.907Z,4.40
2023-03-05T10:04:34.909Z,4.82
2023-03-05T10:05:34.913Z,4.44
2023-03-05T10:06:34.918Z,4.66
2023-03-05T10:07:34.926Z,4.78
2023-03-05T10:08:34.970Z,4.97
2023-03-05T10:09:36.862Z,4.94
2023-03-05T10:10:34.962Z,4.69
2023-03-05T10:11:34.949Z,4.73
2023-03-05T10:12:34.962Z,4.72
2023-03-05T10:13:34.967Z,4.54
2023-03-05T10:14:34.964Z,4.51
2023-03-05T10:15:34.975Z,4.24
2023-03-05T10:16:35.044Z,4.55
2023-03-05T10:17:35.010Z,4.88
2023-03-05T10:18:35.003Z,4.45
2023-03-05T10:19:35.023Z,4.40
2023-03-05T10:20:35.001Z,4.24
2023-03-05T10:21:35.012Z,4.22
2023-03-05T10:22:35.027Z,4.24
2023-03-05T10:23:35.050Z,4.24
2023-03-05T10:24:35.046Z,4.22
2023-03-05T10:25:35.039Z,4.36
2023-03-05T10:26:35.041Z,4.42
2023-03-05T10:27:35.084Z,4.34
2023-03-05T10:28:35.060Z,4.65
2023-03-05T10:29:35.070Z,4.70
2023-03-05T10:30:35.064Z,5.10
2023-03-05T10:31:35.286Z,5.12
2023-03-05T10:32:35.147Z,4.88
2023-03-05T10:33:35.096Z,4.70
2023-03-05T10:34:35.101Z,4.70
2023-03-05T10:35:35.115Z,4.77
2023-03-05T10:36:35.107Z,5.22
2023-03-05T10:37:35.114Z,5.04
2023-03-05T10:38:35.116Z,5.42
2023-03-05T10:39:35.131Z,5.33
2023-03-05T10:40:35.145Z,5.65
2023-03-05T10:41:35.145Z,5.64
2023-03-05T10:42:35.159Z,5.78
2023-03-05T10:43:35.153Z,5.28
2023-03-05T10:44:35.156Z,5.18
2023-03-05T10:45:35.228Z,5.25
2023-03-05T10:46:35.171Z,5.64
2023-03-05T10:47:35.183Z,5.24
2023-03-05T10:48:35.197Z,5.38
2023-03-05T10:49:35.194Z,4.69
2023-03-05T10:50:35.201Z,4.67
2023-03-05T10:51:35.240Z,4.62
2023-03-05T10:52:35.216Z,5.63
2023-03-05T10:53:35.222Z,6.08
2023-03-05T10:54:35.225Z,5.76
2023-03-05T10:55:35.237Z,5.91
2023-03-05T10:56:35.258Z,5.71
2023-03-05T10:57:35.251Z,5.33
2023-03-05T10:58:35.252Z,5.96
2023-03-05T10:59:35.263Z,6.38
2023-03-05T11:00:35.266Z,6.25
2023-03-05T11:01:35.368Z,5.58
2023-03-05T11:02:35.320Z,5.46
2023-03-05T11:03:35.289Z,5.39
2023-03-05T11:04:35.293Z,5.36
2023-03-05T11:05:35.303Z,6.06
2023-03-05T11:06:35.309Z,6.61
2023-03-05T11:07:35.335Z,6.74
2023-03-05T11:08:35.332Z,6.64
2023-03-05T11:09:35.337Z,6.08
2023-03-05T11:10:35.335Z,5.79
2023-03-05T11:11:35.348Z,5.45
2023-03-05T11:12:35.376Z,5.64
2023-03-05T11:13:35.362Z,5.97
2023-03-05T11:14:35.362Z,6.27
2023-03-05T11:15:35.453Z,6.55
2023-03-05T11:16:35.374Z,6.54
2023-03-05T11:17:35.390Z,6.97
2023-03-05T11:18:35.421Z,6.36
2023-03-05T11:19:35.403Z,5.91
2023-03-05T11:20:35.406Z,5.93
2023-03-05T11:21:35.424Z,6.21
2023-03-05T11:22:35.425Z,6.36
2023-03-05T11:23:35.433Z,6.00
2023-03-05T11:24:35.447Z,6.49
2023-03-05T11:25:35.451Z,6.91
2023-03-05T11:26:35.451Z,6.14
2023-03-05T11:27:35.463Z,6.28
2023-03-05T11:28:35.488Z,6.62
2023-03-05T11:29:35.480Z,7.25
2023-03-05T11:30:35.541Z,7.27
2023-03-05T11:31:35.498Z,7.16
2023-03-05T11:32:35.592Z,7.52
2023-03-05T11:33:35.509Z,7.13
2023-03-05T11:34:35.541Z,7.27
2023-03-05T11:35:35.568Z,6.91
2023-03-05T11:36:35.543Z,6.59
2023-03-05T11:37:35.561Z,7.07
2023-03-05T11:38:35.547Z,7.28
2023-03-05T11:39:35.559Z,7.10
2023-03-05T11:40:35.562Z,6.95
2023-03-05T11:41:35.590Z,7.39
2023-03-05T11:42:35.581Z,7.12
2023-03-05T11:43:35.593Z,7.02
2023-03-05T11:44:35.648Z,6.70
2023-03-05T11:45:35.613Z,6.40
2023-03-05T11:46:35.726Z,6.69
2023-03-05T11:47:35.627Z,7.13
2023-03-05T11:48:35.646Z,6.94
2023-03-05T11:49:35.642Z,6.58
2023-03-05T11:50:35.648Z,6.46
2023-03-05T11:51:35.663Z,6.84
2023-03-05T11:52:35.665Z,6.87
2023-03-05T11:53:35.678Z,7.42
2023-03-05T11:54:35.695Z,7.77
2023-03-05T11:55:35.696Z,7.57
2023-03-05T11:56:35.705Z,6.84
2023-03-05T11:57:35.720Z,6.44
2023-03-05T11:58:35.720Z,6.09
2023-03-05T11:59:35.735Z,5.82
2023-03-05T12:00:35.755Z,6.64
2023-03-05T12:01:35.753Z,6.84
2023-03-05T12:02:35.789Z,6.99
2023-03-05T12:03:35.852Z,7.15
2023-03-05T12:04:35.782Z,7.15
2023-03-05T12:05:35.786Z,7.28
2023-03-05T12:06:35.805Z,7.30
2023-03-05T12:07:35.809Z,7.23
2023-03-05T12:08:35.809Z,7.34
2023-03-05T12:09:35.835Z,7.53
2023-03-05T12:10:35.826Z,6.84
2023-03-05T12:11:35.840Z,7.28
2023-03-05T12:12:35.877Z,7.10
2023-03-05T12:13:35.856Z,7.40
2023-03-05T12:14:35.866Z,7.72
2023-03-05T12:15:35.881Z,7.50
2023-03-05T12:16:35.933Z,7.45
2023-03-05T12:17:35.893Z,7.53
2023-03-05T12:18:35.899Z,8.25
2023-03-05T12:19:35.911Z,8.80
2023-03-05T12:20:35.994Z,7.98
2023-03-05T12:21:35.932Z,7.27
2023-03-05T12:22:35.935Z,7.28
2023-03-05T12:23:35.949Z,7.60
2023-03-05T12:24:35.958Z,7.61
2023-03-05T12:25:35.969Z,8.38
2023-03-05T12:26:35.973Z,8.99
2023-03-05T12:27:35.987Z,9.21
2023-03-05T12:28:35.993Z,8.79
2023-03-05T12:29:36.004Z,8.41
2023-03-05T12:30:36.033Z,8.56
2023-03-05T12:31:36.097Z,8.55
2023-03-05T12:32:36.126Z,8.65
2023-03-05T12:33:36.046Z,8.76
2023-03-05T12:34:36.047Z,9.01
2023-03-05T12:35:36.103Z,9.39
2023-03-05T12:36:36.069Z,8.38
2023-03-05T12:37:36.083Z,7.63
2023-03-05T12:38:36.089Z,7.55
2023-03-05T12:39:36.116Z,7.89
2023-03-05T12:40:36.107Z,7.72
2023-03-05T12:41:36.134Z,8.15
2023-03-05T12:42:36.130Z,8.50
2023-03-05T12:43:36.142Z,8.86
2023-03-05T12:44:36.159Z,9.17
2023-03-05T12:45:36.159Z,9.74
2023-03-05T12:46:36.227Z,10.01
2023-03-05T12:47:36.182Z,10.47
2023-03-05T12:48:36.256Z,10.14
2023-03-05T12:49:36.199Z,9.69
2023-03-05T12:50:36.205Z,9.61
2023-03-05T12:51:36.227Z,9.54
2023-03-05T12:52:36.251Z,8.86
2023-03-05T12:53:36.240Z,8.81
2023-03-05T12:54:36.253Z,9.36
2023-03-05T12:55:36.262Z,9.58
2023-03-05T12:56:36.269Z,10.02
2023-03-05T12:57:36.288Z,9.72
2023-03-05T12:58:36.296Z,9.68
2023-03-05T12:59:36.304Z,9.40
2023-03-05T13:00:36.320Z,8.66
2023-03-05T13:01:36.334Z,8.96
2023-03-05T13:02:36.332Z,9.21